Terminal Aerodrome Forecast
Issued by NWS

Home | Current Version | Previous Version | Text Only | Print | Product List | Glossary On
Versions: 1 2 3 4 5 6 7 8 9 10 11 12 13 14 15 16 17 18 19 20 21 22 23 24 25
000
FTAK31 PAJN 280206 AAA
TAFAYA
TAF AMD
PAYA 280206Z 2802/2824 07006KT 5SM -RA BR BKN010 OVC020
     FM280800 07007KT 6SM -RA SCT010 OVC030 WS020/06025KT
     FM281000 07008KT 6SM -RA SCT010 OVC040 WS020/06025KT
     FM281300 07008KT P6SM -SHRA SCT015 OVC040 WS020/06025KT
     FM281700 07005KT P6SM VCSH SCT015 BKN050
     FM282100 VRB03KT P6SM SCT015 BKN050
      AMD LTD TO CLD AND WIND 2802/2810=

USA.gov is the U.S. government's official web portal to all federal, state and local government web resources and services.